Dawson Creek, Canada
Current Conditions -  °F | °C
As of 2:00 AM on Wednesday 26 Nov 2014 (Local Time) from CYDQ Reporting Station
Clear Clear  
Wind Chill: -8°   Ceiling: Unl
Heat Index: -8°   Visibility: 9mi
Dew Point: -11°   Wind: 2mph
Humidity: 84%   Direction: 260°W
Pressure: 30.13"   Gusts: NA
Location:  55.76°N, 120.24°W
Report Text: CYDQ 260900Z AUTO 26002KT 9SM CLR M22/M24 A3013 RMK SLP267
Loading
Personal Weather Stations






























Interactive Weather Map New forecast layout! Learn more

10-Day Weather Forecast

Advertisements
Track Severe Weather on mobile